< < Back
Terminal Aerodrome Forecast


Current Version              Previous Versions:   1  2  3  4  5  6  7  8  9  

Terminal Aerodrome Forecast

173
FTUS42 KCAE 231133
TAFAGS
TAF
KAGS 231133Z 2312/2412 VRB03KT P6SM SCT200
     FM231500 24006KT P6SM SCT060 BKN200
     FM240000 VRB03KT P6SM BKN070 BKN200=

Latest METAR

585
SAUS70 KWBC 231500 RRK
MTRAGS
METAR KAGS 231453Z 19003KT 10SM CLR 32/22 A3003 RMK AO2 SLP165 T03220222
51006


USA.gov is the U.S. government's official web portal to all federal, state and local government web resources and services.